Time;durP1;ratioP1;P1;durP2;ratioP2;P2;SDS_P1;SDS_P2;PMS_P1;PMS_P2;Temp;Humidity;BMP_temperature;BMP_pressure;BME280_temperature;BME280_humidity;BME280_pressure;Samples;Min_cycle;Max_cycle;Signal;HPM_P1;HPM_P2
2023/03/18 00:02:12;;;;;;;5.70;3.93;;;10.40;92.80;;;;;;5038563;28;20506;-69
2023/03/18 00:04:41;;;;;;;4.93;3.87;;;10.40;92.80;;;;;;5035374;28;20448;-68
2023/03/18 00:07:08;;;;;;;8.00;4.00;;;10.40;92.70;;;;;;5036461;28;20839;-66
2023/03/18 00:09:37;;;;;;;7.90;4.20;;;10.40;92.80;;;;;;5049871;28;20449;-58
2023/03/18 00:12:05;;;;;;;12.10;4.70;;;10.40;93.00;;;;;;5052089;28;20444;-68
2023/03/18 00:14:32;;;;;;;5.97;4.10;;;10.30;92.90;;;;;;5049560;28;20483;-68
2023/03/18 00:16:59;;;;;;;6.80;3.70;;;10.30;93.00;;;;;;5037934;28;20468;-67
2023/03/18 00:19:31;;;;;;;5.60;4.13;;;10.30;92.80;;;;;;5040088;28;20440;-69
2023/03/18 00:21:58;;;;;;;8.00;4.00;;;10.30;93.00;;;;;;5037538;28;20535;-65
2023/03/18 00:24:26;;;;;;;7.03;4.63;;;10.30;92.90;;;;;;5033943;28;20472;-66
2023/03/18 00:26:53;;;;;;;8.80;4.30;;;10.30;92.90;;;;;;5020900;28;20508;-67
2023/03/18 00:29:20;;;;;;;12.47;3.80;;;10.30;92.90;;;;;;5040629;28;20504;-58
2023/03/18 00:31:48;;;;;;;6.87;4.77;;;10.30;93.00;;;;;;5038513;28;20864;-69
2023/03/18 00:34:17;;;;;;;5.47;4.10;;;10.30;93.10;;;;;;5039087;28;20476;-67
2023/03/18 00:36:49;;;;;;;6.37;4.13;;;10.30;93.40;;;;;;5036918;28;20484;-68
2023/03/18 00:39:17;;;;;;;8.03;4.17;;;10.30;93.00;;;;;;5035528;28;20503;-57
2023/03/18 00:41:44;;;;;;;7.37;3.70;;;10.30;93.10;;;;;;5034109;28;20467;-66
2023/03/18 00:44:13;;;;;;;3.83;3.10;;;10.30;93.20;;;;;;5032334;28;20485;-69
2023/03/18 00:46:42;;;;;;;7.23;4.63;;;10.20;93.10;;;;;;5038266;28;20479;-53
2023/03/18 00:49:09;;;;;;;9.33;4.30;;;10.20;93.20;;;;;;5057627;28;20443;-54
2023/03/18 00:51:38;;;;;;;7.43;3.80;;;10.20;93.40;;;;;;5053930;28;20453;-64
2023/03/18 00:54:08;;;;;;;9.57;4.37;;;10.10;93.30;;;;;;5033630;28;20468;-69
2023/03/18 00:56:37;;;;;;;7.10;4.63;;;10.10;93.30;;;;;;5032692;28;20460;-70
2023/03/18 00:59:04;;;;;;;5.03;3.50;;;10.10;93.50;;;;;;5037301;28;20452;-67
2023/03/18 01:01:32;;;;;;;5.73;3.90;;;10.00;93.60;;;;;;5043181;28;20451;-66
2023/03/18 01:03:59;;;;;;;5.23;3.60;;;10.00;93.70;;;;;;5050277;28;20494;-64
2023/03/18 01:06:29;;;;;;;9.17;3.90;;;10.00;93.70;;;;;;5048085;28;20503;-68
2023/03/18 01:08:57;;;;;;;15.10;5.77;;;10.00;93.60;;;;;;5041641;28;20494;-66
2023/03/18 01:11:26;;;;;;;6.90;4.10;;;10.00;93.70;;;;;;5040053;28;20508;-68
2023/03/18 01:13:53;;;;;;;6.57;4.13;;;10.00;93.70;;;;;;5044121;28;20994;-68
2023/03/18 01:16:21;;;;;;;6.77;4.17;;;10.00;93.80;;;;;;5042601;28;20463;-57
2023/03/18 01:18:49;;;;;;;4.97;3.80;;;9.90;94.30;;;;;;5014488;28;20941;-68
2023/03/18 01:21:15;;;;;;;5.97;3.80;;;9.90;94.70;;;;;;5017789;28;20547;-69
2023/03/18 01:23:42;;;;;;;5.70;3.53;;;9.90;94.70;;;;;;5027550;28;20492;-66
2023/03/18 01:26:09;;;;;;;5.37;3.37;;;9.90;94.40;;;;;;5021888;28;20460;-62
2023/03/18 01:28:38;;;;;;;5.20;3.40;;;9.90;94.40;;;;;;5029911;28;20476;-68
2023/03/18 01:31:06;;;;;;;8.00;3.87;;;9.90;94.40;;;;;;5039466;28;20467;-67
2023/03/18 01:33:35;;;;;;;8.40;4.20;;;9.90;94.60;;;;;;5041282;28;20455;-61
2023/03/18 01:36:03;;;;;;;7.33;3.70;;;9.90;94.60;;;;;;5040782;28;20472;-64
2023/03/18 01:38:31;;;;;;;7.47;3.40;;;9.90;94.60;;;;;;5034915;28;20459;-70
2023/03/18 01:40:59;;;;;;;5.17;3.50;;;9.90;94.60;;;;;;5025223;28;20488;-67
2023/03/18 01:43:28;;;;;;;6.87;3.23;;;9.90;94.40;;;;;;5017587;28;20449;-70
2023/03/18 01:45:58;;;;;;;4.10;3.00;;;9.90;94.40;;;;;;5019023;28;20492;-71
2023/03/18 01:48:29;;;;;;;8.30;3.97;;;9.90;94.50;;;;;;5034856;28;20490;-66
2023/03/18 01:50:59;;;;;;;7.70;4.27;;;9.90;94.50;;;;;;5041712;28;20432;-70
2023/03/18 01:53:29;;;;;;;5.57;3.80;;;9.90;94.50;;;;;;5041187;28;20921;-69
2023/03/18 01:55:58;;;;;;;5.47;3.50;;;9.90;94.60;;;;;;5041603;28;20500;-69
2023/03/18 01:58:30;;;;;;;4.50;3.30;;;9.90;94.50;;;;;;5040050;28;20472;-68
2023/03/18 02:01:04;;;;;;;5.73;3.27;;;9.90;94.90;;;;;;5020305;28;20808;-67
2023/03/18 02:03:32;;;;;;;6.07;3.53;;;9.90;94.70;;;;;;5027706;28;20484;-68
2023/03/18 02:05:59;;;;;;;6.83;3.80;;;9.90;94.70;;;;;;5050393;28;20490;-67
2023/03/18 02:08:26;;;;;;;7.60;4.03;;;9.90;94.80;;;;;;5053339;28;20508;-67
2023/03/18 02:10:53;;;;;;;7.60;4.13;;;9.90;94.60;;;;;;5047664;28;20515;-68
2023/03/18 02:13:20;;;;;;;4.50;3.20;;;9.90;94.60;;;;;;5032514;28;20452;-67
2023/03/18 02:15:52;;;;;;;6.60;3.33;;;9.90;94.60;;;;;;5020085;28;20499;-67
2023/03/18 02:18:24;;;;;;;5.57;3.57;;;10.00;93.90;;;;;;5039666;28;21000;-59
2023/03/18 02:21:08;;;;;;;11.87;4.27;;;10.00;93.70;;;;;;5050949;28;20500;-68
2023/03/18 02:23:45;;;;;;;7.40;3.90;;;10.00;93.60;;;;;;5045768;28;20503;-66
2023/03/18 02:26:21;;;;;;;4.73;4.20;;;10.00;93.40;;;;;;5039338;28;20545;-65
2023/03/18 02:28:52;;;;;;;5.87;4.03;;;9.90;94.20;;;;;;5032028;28;20502;-69
2023/03/18 02:31:19;;;;;;;5.07;4.27;;;10.00;93.60;;;;;;5039849;28;20537;-69
2023/03/18 02:33:47;;;;;;;9.00;4.20;;;10.00;93.50;;;;;;5040108;28;20440;-67
2023/03/18 02:36:18;;;;;;;7.30;4.03;;;10.00;93.20;;;;;;5037299;28;20562;-68
2023/03/18 02:38:46;;;;;;;6.47;3.50;;;10.00;93.00;;;;;;5037397;28;20476;-68
2023/03/18 02:41:15;;;;;;;9.70;4.63;;;10.00;92.90;;;;;;5028533;28;20458;-67
2023/03/18 02:43:43;;;;;;;6.33;4.33;;;10.00;92.90;;;;;;5016787;28;20464;-69
2023/03/18 02:46:35;;;;;;;5.03;3.83;;;10.00;92.90;;;;;;5017263;28;20852;-70
2023/03/18 02:49:05;;;;;;;7.87;4.43;;;10.00;92.90;;;;;;5033207;28;20487;-69
2023/03/18 02:51:35;;;;;;;9.60;5.57;;;10.00;92.60;;;;;;5037769;28;20908;-66
2023/03/18 02:54:06;;;;;;;9.60;4.10;;;10.00;92.80;;;;;;5035830;28;20460;-68
2023/03/18 02:56:34;;;;;;;6.83;4.10;;;10.00;92.70;;;;;;5016932;28;20499;-68
2023/03/18 02:59:01;;;;;;;8.10;4.27;;;10.00;92.50;;;;;;5021225;28;20503;-68
2023/03/18 03:01:28;;;;;;;6.07;4.13;;;10.00;92.70;;;;;;5036485;28;20478;-69
2023/03/18 03:03:56;;;;;;;5.73;3.93;;;10.00;92.60;;;;;;5052382;28;20459;-62
2023/03/18 03:06:24;;;;;;;6.30;4.10;;;9.90;93.10;;;;;;5050632;28;20488;-65
2023/03/18 03:08:51;;;;;;;8.30;4.67;;;9.90;93.10;;;;;;5047100;28;20451;-68
2023/03/18 03:11:19;;;;;;;10.73;4.20;;;9.90;92.90;;;;;;5046822;28;20539;-67
2023/03/18 03:13:46;;;;;;;6.63;4.30;;;9.90;93.20;;;;;;5040085;28;20440;-62
2023/03/18 03:16:15;;;;;;;7.40;3.90;;;9.90;93.20;;;;;;5039589;28;21039;-62
2023/03/18 03:18:43;;;;;;;7.33;3.93;;;9.80;93.40;;;;;;5044801;28;20463;-68
2023/03/18 03:21:12;;;;;;;6.30;3.53;;;9.80;93.50;;;;;;5036137;28;20543;-66
2023/03/18 03:23:41;;;;;;;7.27;3.50;;;9.80;93.50;;;;;;5028978;28;20472;-68
2023/03/18 03:26:08;;;;;;;4.83;3.60;;;9.80;93.50;;;;;;5036158;28;20461;-69
2023/03/18 03:28:36;;;;;;;5.83;4.27;;;9.80;93.40;;;;;;5026481;28;20507;-68
2023/03/18 03:31:03;;;;;;;6.97;3.80;;;9.80;93.50;;;;;;5035826;28;20547;-68
2023/03/18 03:33:30;;;;;;;9.90;4.37;;;9.80;93.60;;;;;;5036114;28;20712;-64
2023/03/18 03:35:57;;;;;;;5.00;3.30;;;9.80;94.10;;;;;;5050480;28;20498;-63
2023/03/18 03:38:26;;;;;;;4.70;3.70;;;9.80;94.20;;;;;;5030927;28;20449;-68
2023/03/18 03:40:53;;;;;;;4.60;3.23;;;9.80;94.00;;;;;;5030556;28;20499;-68
2023/03/18 03:43:20;;;;;;;6.40;3.77;;;9.80;94.20;;;;;;5038645;28;20538;-66
2023/03/18 03:45:47;;;;;;;7.63;4.27;;;9.70;94.40;;;;;;5037931;28;20551;-67
2023/03/18 03:48:15;;;;;;;5.40;3.60;;;9.70;94.70;;;;;;5029571;28;20485;-68
2023/03/18 03:50:42;;;;;;;5.60;3.70;;;9.60;94.90;;;;;;5018513;28;20977;-65
2023/03/18 03:53:09;;;;;;;6.17;4.27;;;9.60;95.10;;;;;;5019214;28;20445;-69
2023/03/18 03:55:37;;;;;;;6.70;4.40;;;9.60;95.50;;;;;;5019772;28;20476;-65
2023/03/18 03:58:04;;;;;;;9.10;4.00;;;9.60;95.50;;;;;;5018350;28;20485;-68
2023/03/18 04:00:31;;;;;;;7.80;5.60;;;9.60;95.60;;;;;;5035272;28;20551;-69
2023/03/18 04:02:59;;;;;;;7.53;5.10;;;9.60;95.60;;;;;;5044097;28;20483;-68
2023/03/18 04:05:26;;;;;;;7.53;4.37;;;9.60;95.70;;;;;;5039752;28;20507;-70
2023/03/18 04:07:58;;;;;;;12.00;4.80;;;9.60;95.60;;;;;;5037956;28;20448;-69
2023/03/18 04:10:26;;;;;;;5.30;3.60;;;9.60;95.60;;;;;;5046208;28;20471;-67
2023/03/18 04:12:54;;;;;;;6.20;4.07;;;9.50;95.80;;;;;;5038954;28;20483;-66
2023/03/18 04:15:22;;;;;;;5.80;3.80;;;9.60;96.10;;;;;;5035350;28;20584;-69
2023/03/18 04:17:53;;;;;;;7.47;3.80;;;9.50;96.10;;;;;;5034907;28;20499;-66
2023/03/18 04:20:20;;;;;;;9.60;4.17;;;9.50;96.30;;;;;;5035093;28;20526;-69
2023/03/18 04:22:48;;;;;;;7.70;4.40;;;9.40;96.60;;;;;;5035691;28;20452;-67
2023/03/18 04:25:15;;;;;;;5.67;3.53;;;9.50;96.40;;;;;;5035644;28;20467;-66
2023/03/18 04:27:45;;;;;;;5.43;4.27;;;9.50;96.50;;;;;;5035650;28;20452;-69
2023/03/18 04:30:14;;;;;;;6.00;4.07;;;9.40;96.50;;;;;;5038428;28;20494;-69
2023/03/18 04:32:41;;;;;;;8.07;4.20;;;9.40;96.40;;;;;;5037892;28;20523;-66
2023/03/18 04:35:09;;;;;;;5.53;3.43;;;9.50;96.60;;;;;;5037832;28;20988;-68
2023/03/18 04:37:37;;;;;;;8.07;5.07;;;9.50;96.70;;;;;;5037255;28;20533;-68
2023/03/18 04:40:06;;;;;;;7.63;4.10;;;9.40;96.70;;;;;;5037700;28;20444;-69
2023/03/18 04:42:33;;;;;;;5.17;3.90;;;9.40;96.80;;;;;;5031694;28;20490;-69
2023/03/18 04:45:00;;;;;;;8.20;4.30;;;9.40;97.10;;;;;;5018107;28;20480;-68
2023/03/18 04:47:28;;;;;;;8.60;4.37;;;9.40;97.10;;;;;;5014906;28;20445;-68
2023/03/18 04:49:55;;;;;;;6.60;3.50;;;9.50;97.10;;;;;;5016170;28;20536;-66
2023/03/18 04:52:23;;;;;;;5.93;4.03;;;9.50;97.00;;;;;;5018424;28;20540;-67
2023/03/18 04:54:50;;;;;;;9.80;3.63;;;9.40;97.20;;;;;;5017608;28;20485;-64
2023/03/18 04:57:18;;;;;;;8.10;3.93;;;9.40;97.70;;;;;;5017865;28;20531;-68
2023/03/18 04:59:45;;;;;;;4.23;3.77;;;9.40;97.80;;;;;;5028337;28;20483;-66
2023/03/18 05:02:12;;;;;;;6.33;3.90;;;9.40;97.80;;;;;;5043434;28;20472;-63
2023/03/18 05:04:48;;;;;;;7.70;4.87;;;9.30;97.90;;;;;;5041528;28;20448;-68
2023/03/18 05:07:16;;;;;;;7.50;4.90;;;9.30;98.10;;;;;;5036508;28;20447;-66
2023/03/18 05:09:43;;;;;;;6.83;4.00;;;9.30;98.20;;;;;;5037128;28;20511;-70
2023/03/18 05:12:16;;;;;;;6.10;3.87;;;9.30;98.40;;;;;;5037029;28;20528;-66
2023/03/18 05:14:45;;;;;;;7.10;4.20;;;9.30;98.30;;;;;;5038052;28;20428;-65
2023/03/18 05:17:15;;;;;;;4.60;3.30;;;9.20;98.40;;;;;;5036817;28;20479;-69
2023/03/18 05:19:48;;;;;;;7.63;3.97;;;9.20;98.50;;;;;;5040046;28;20472;-67
2023/03/18 05:22:16;;;;;;;11.00;3.53;;;9.20;98.60;;;;;;5041192;28;20503;-63
2023/03/18 05:24:44;;;;;;;5.20;3.67;;;9.20;98.70;;;;;;5050761;28;20452;-69
2023/03/18 05:27:15;;;;;;;6.83;4.00;;;9.20;98.90;;;;;;5043899;28;20440;-61
2023/03/18 05:29:42;;;;;;;6.07;3.80;;;9.20;98.90;;;;;;5040153;28;20515;-67
2023/03/18 05:32:11;;;;;;;7.17;4.07;;;9.10;99.00;;;;;;5022628;28;20517;-67
2023/03/18 05:34:39;;;;;;;8.77;3.70;;;9.10;99.20;;;;;;5033263;28;20486;-68
2023/03/18 05:37:09;;;;;;;8.37;4.27;;;9.10;99.30;;;;;;5033648;28;20483;-68
2023/03/18 05:39:37;;;;;;;5.47;3.67;;;9.10;99.40;;;;;;5014509;28;20473;-64
2023/03/18 05:42:05;;;;;;;7.00;4.23;;;9.10;99.60;;;;;;5016108;28;20455;-67
2023/03/18 05:44:32;;;;;;;5.47;3.73;;;9.10;99.90;;;;;;5028648;28;20457;-69
2023/03/18 05:47:00;;;;;;;6.73;4.40;;;9.10;99.60;;;;;;5042366;28;20527;-69
2023/03/18 05:49:27;;;;;;;4.20;3.53;;;9.10;99.70;;;;;;5038335;28;20455;-69
2023/03/18 05:51:54;;;;;;;6.40;4.00;;;9.10;99.80;;;;;;5039201;28;20523;-68
2023/03/18 05:54:23;;;;;;;7.50;4.60;;;9.10;99.90;;;;;;5038089;28;20722;-68
2023/03/18 05:56:51;;;;;;;5.97;3.40;;;9.10;99.90;;;;;;5037047;28;20496;-67
2023/03/18 05:59:22;;;;;;;9.83;4.03;;;9.20;99.90;;;;;;5031318;28;20584;-67
2023/03/18 06:01:50;;;;;;;6.20;4.10;;;9.20;99.90;;;;;;5023672;28;20507;-68
2023/03/18 06:04:18;;;;;;;6.23;4.30;;;9.20;99.80;;;;;;5018150;28;20460;-67
2023/03/18 06:06:45;;;;;;;8.10;3.90;;;9.20;99.90;;;;;;5017062;28;20910;-68
2023/03/18 06:09:14;;;;;;;11.93;4.17;;;9.20;99.90;;;;;;5016613;28;20481;-64
2023/03/18 06:11:42;;;;;;;15.10;5.70;;;9.20;99.90;;;;;;5033229;28;20456;-67
2023/03/18 06:14:10;;;;;;;6.67;4.87;;;9.20;99.90;;;;;;5032607;28;21002;-65
2023/03/18 06:16:38;;;;;;;9.47;4.30;;;9.30;99.90;;;;;;5036539;28;20511;-65
2023/03/18 06:19:09;;;;;;;12.10;4.80;;;9.30;99.90;;;;;;5036366;28;20482;-63
2023/03/18 06:21:36;;;;;;;13.43;4.10;;;9.30;99.90;;;;;;5036062;28;20425;-66
2023/03/18 06:24:03;;;;;;;12.67;5.17;;;9.30;99.80;;;;;;5039050;28;20522;-65
2023/03/18 06:26:30;;;;;;;11.33;5.43;;;9.40;99.90;;;;;;5031115;28;20490;-67
2023/03/18 06:28:58;;;;;;;10.20;5.13;;;9.40;99.80;;;;;;5028325;28;20452;-68
2023/03/18 06:31:28;;;;;;;11.63;4.67;;;9.40;99.90;;;;;;5037469;28;20468;-67
2023/03/18 06:33:58;;;;;;;15.10;5.23;;;9.40;99.70;;;;;;5016980;28;20527;-65
2023/03/18 06:36:25;;;;;;;6.93;3.27;;;9.40;99.90;;;;;;5022192;28;20519;-67
2023/03/18 06:38:52;;;;;;;9.00;3.50;;;9.40;99.80;;;;;;5039845;28;20897;-66
2023/03/18 06:41:19;;;;;;;7.00;3.50;;;9.40;99.90;;;;;;5026448;28;20537;-67
2023/03/18 06:43:49;;;;;;;9.17;4.00;;;9.40;99.90;;;;;;5024321;28;20448;-69
2023/03/18 06:46:17;;;;;;;8.10;4.70;;;9.40;99.90;;;;;;5033753;28;20507;-68
2023/03/18 06:48:45;;;;;;;7.40;4.57;;;9.40;99.90;;;;;;5041543;28;20551;-65
2023/03/18 06:51:12;;;;;;;4.40;3.40;;;9.50;99.90;;;;;;5036306;28;20543;-68
2023/03/18 06:53:39;;;;;;;15.23;4.77;;;9.40;99.90;;;;;;5030262;28;20476;-64
2023/03/18 06:56:07;;;;;;;6.10;3.97;;;9.40;99.90;;;;;;5030230;28;20576;-70
2023/03/18 06:58:33;;;;;;;12.40;4.53;;;9.50;99.90;;;;;;5040246;28;20510;-68
2023/03/18 07:01:01;;;;;;;10.57;4.90;;;9.50;99.90;;;;;;5037893;28;20479;-68
2023/03/18 07:03:30;;;;;;;9.70;4.30;;;9.50;99.90;;;;;;5051762;28;20442;-68
2023/03/18 07:05:56;;;;;;;7.87;4.97;;;9.50;99.90;;;;;;5048575;28;20478;-65
2023/03/18 07:08:24;;;;;;;8.37;4.20;;;9.50;99.90;;;;;;5057049;28;20463;-54
2023/03/18 07:10:52;;;;;;;7.43;4.60;;;9.50;99.90;;;;;;5036719;28;20453;-69
2023/03/18 07:13:22;;;;;;;9.13;4.70;;;9.60;99.90;;;;;;5030745;28;20455;-68
2023/03/18 07:15:48;;;;;;;8.90;4.53;;;9.70;99.90;;;;;;5036123;28;20574;-63
2023/03/18 07:18:15;;;;;;;6.87;4.43;;;9.70;99.90;;;;;;5033268;28;20464;-67
2023/03/18 07:20:44;;;;;;;6.60;4.60;;;9.80;99.90;;;;;;5035924;28;20463;-67
2023/03/18 07:23:11;;;;;;;9.73;4.60;;;9.80;99.90;;;;;;5043843;28;20471;-66
2023/03/18 07:25:37;;;;;;;8.83;4.33;;;10.00;99.90;;;;;;5043408;28;20464;-69
2023/03/18 07:28:04;;;;;;;8.90;4.40;;;10.10;99.90;;;;;;5039824;28;20468;-61
2023/03/18 07:30:32;;;;;;;10.83;4.03;;;10.10;99.60;;;;;;5039171;28;20455;-65
2023/03/18 07:32:59;;;;;;;6.83;4.17;;;10.20;99.50;;;;;;5041621;28;20791;-64
2023/03/18 07:35:27;;;;;;;6.37;3.93;;;10.20;99.60;;;;;;5045747;28;20452;-65
2023/03/18 07:37:55;;;;;;;5.17;3.77;;;10.20;99.60;;;;;;5040225;28;20433;-68
2023/03/18 07:40:23;;;;;;;8.93;4.77;;;10.30;99.60;;;;;;5040299;28;20551;-67
2023/03/18 07:42:50;;;;;;;8.23;4.20;;;10.20;99.70;;;;;;5051162;28;20455;-64
2023/03/18 07:45:17;;;;;;;11.30;4.50;;;10.30;99.80;;;;;;5050956;28;20484;-63
2023/03/18 07:47:44;;;;;;;4.90;3.47;;;10.20;99.90;;;;;;5052212;28;20437;-66
2023/03/18 07:50:12;;;;;;;7.10;4.10;;;10.30;99.90;;;;;;5050313;28;20479;-62
2023/03/18 07:52:39;;;;;;;7.43;3.93;;;10.40;99.90;;;;;;5035922;28;20519;-63
2023/03/18 07:55:09;;;;;;;5.83;4.30;;;10.40;99.90;;;;;;5030139;28;20976;-67
2023/03/18 07:57:36;;;;;;;9.60;5.20;;;10.50;99.90;;;;;;5036944;28;20476;-64
2023/03/18 08:00:04;;;;;;;6.80;4.07;;;10.60;99.90;;;;;;5035530;28;20923;-64
2023/03/18 08:02:32;;;;;;;6.97;3.70;;;10.70;99.90;;;;;;5034669;28;20449;-69
2023/03/18 08:05:02;;;;;;;6.97;3.90;;;10.80;99.90;;;;;;5050267;28;20471;-65
2023/03/18 08:07:29;;;;;;;11.23;4.83;;;10.90;99.90;;;;;;5037363;28;20507;-58
2023/03/18 08:09:56;;;;;;;9.30;4.23;;;10.90;99.90;;;;;;5034034;28;20475;-50
2023/03/18 08:12:24;;;;;;;7.20;4.03;;;11.00;99.90;;;;;;5046074;28;20468;-67
2023/03/18 08:14:51;;;;;;;7.00;4.93;;;11.10;99.90;;;;;;5030685;28;20499;-68
2023/03/18 08:17:18;;;;;;;8.57;4.67;;;11.20;99.90;;;;;;5034456;28;20472;-57
2023/03/18 08:19:45;;;;;;;6.90;4.60;;;11.30;99.90;;;;;;5049992;28;20447;-68
2023/03/18 08:22:13;;;;;;;5.90;3.80;;;11.40;99.40;;;;;;5040822;28;20508;-67
2023/03/18 08:24:40;;;;;;;8.27;3.93;;;11.50;99.20;;;;;;5038618;28;20500;-64
2023/03/18 08:27:08;;;;;;;6.10;3.50;;;11.60;99.10;;;;;;5052387;28;20954;-66
2023/03/18 08:29:36;;;;;;;6.43;4.40;;;11.80;99.10;;;;;;5026744;28;20540;-63
2023/03/18 08:32:03;;;;;;;6.07;4.53;;;12.00;99.10;;;;;;5037706;28;20478;-70
2023/03/18 08:34:30;;;;;;;7.60;4.47;;;12.10;98.50;;;;;;5047564;28;20903;-64
2023/03/18 08:36:57;;;;;;;8.37;4.60;;;12.40;98.30;;;;;;5039275;28;20476;-68
2023/03/18 08:39:24;;;;;;;8.50;4.00;;;12.80;97.60;;;;;;5048873;28;20452;-63
2023/03/18 08:41:50;;;;;;;5.00;3.47;;;13.70;96.90;;;;;;5040471;28;20491;-66
2023/03/18 08:44:17;;;;;;;6.80;4.53;;;15.00;94.00;;;;;;5052092;28;20444;-66
2023/03/18 08:46:45;;;;;;;5.97;3.80;;;16.60;86.10;;;;;;5040249;28;20483;-68
2023/03/18 08:49:13;;;;;;;6.03;4.67;;;18.00;76.20;;;;;;5039616;28;20604;-59
2023/03/18 08:51:40;;;;;;;7.00;3.80;;;18.50;69.90;;;;;;5042048;28;20448;-66
2023/03/18 08:54:07;;;;;;;6.30;4.10;;;18.50;67.50;;;;;;5018701;28;21016;-68
2023/03/18 08:56:34;;;;;;;8.20;4.27;;;18.60;66.20;;;;;;5016833;28;20523;-68
2023/03/18 08:59:01;;;;;;;10.00;4.90;;;18.40;65.70;;;;;;5014591;28;20448;-70
2023/03/18 09:01:29;;;;;;;5.13;4.60;;;18.00;66.40;;;;;;5041815;28;20498;-70
2023/03/18 09:03:58;;;;;;;5.07;4.20;;;17.80;67.20;;;;;;5034367;28;20544;-69
2023/03/18 09:06:25;;;;;;;7.93;5.00;;;17.70;67.70;;;;;;5034237;28;20468;-69
2023/03/18 09:08:52;;;;;;;6.23;4.60;;;17.40;68.30;;;;;;5034526;28;20484;-69
2023/03/18 09:11:19;;;;;;;8.60;4.70;;;17.10;69.20;;;;;;5032167;28;20511;-68
2023/03/18 09:13:46;;;;;;;8.30;5.00;;;16.80;70.40;;;;;;5022874;28;20480;-67
2023/03/18 09:16:13;;;;;;;5.97;4.33;;;16.50;72.00;;;;;;5032346;28;20524;-69
2023/03/18 09:18:40;;;;;;;6.53;4.20;;;16.30;73.60;;;;;;5033938;28;20487;-67
2023/03/18 09:21:09;;;;;;;5.80;4.70;;;16.70;73.80;;;;;;5035202;28;20448;-70
2023/03/18 09:23:36;;;;;;;7.37;5.27;;;17.10;73.30;;;;;;5049338;28;20441;-65
2023/03/18 09:26:03;;;;;;;6.70;3.90;;;17.50;72.00;;;;;;5036213;28;20463;-67
2023/03/18 09:28:30;;;;;;;7.80;3.87;;;18.20;70.10;;;;;;5052076;28;20522;-66
2023/03/18 09:30:57;;;;;;;6.07;4.90;;;19.00;67.20;;;;;;5049943;28;20475;-69
2023/03/18 09:33:25;;;;;;;5.50;4.20;;;19.40;65.10;;;;;;5046505;28;20444;-52
2023/03/18 09:35:52;;;;;;;6.83;3.90;;;19.40;63.80;;;;;;5040038;28;20470;-67
2023/03/18 09:38:21;;;;;;;8.87;4.97;;;19.10;64.00;;;;;;5043135;28;20491;-61
2023/03/18 09:41:00;;;;;;;9.00;4.93;;;18.70;64.90;;;;;;5050441;28;20476;-61
2023/03/18 09:43:41;;;;;;;9.87;5.20;;;18.50;66.60;;;;;;5048082;28;20460;-67
2023/03/18 09:46:18;;;;;;;5.50;4.60;;;18.20;67.30;;;;;;5047562;28;20463;-58
2023/03/18 09:49:04;;;;;;;11.67;4.83;;;18.00;67.80;;;;;;5048692;28;20483;-67
2023/03/18 09:51:40;;;;;;;4.67;3.30;;;18.30;68.30;;;;;;5042806;28;20484;-63
2023/03/18 09:54:15;;;;;;;5.33;3.67;;;18.80;67.60;;;;;;5041224;28;21200;-62
2023/03/18 09:56:45;;;;;;;8.87;4.20;;;19.50;65.60;;;;;;5051128;28;20475;-58
2023/03/18 09:59:20;;;;;;;6.40;5.33;;;20.10;64.00;;;;;;5052450;28;20460;-58
2023/03/18 10:01:50;;;;;;;8.93;5.23;;;20.50;62.60;;;;;;5048476;28;20448;-63
2023/03/18 10:04:22;;;;;;;9.53;4.63;;;21.10;61.20;;;;;;5041968;28;20552;-63
2023/03/18 10:06:54;;;;;;;8.00;4.03;;;21.80;59.60;;;;;;5030800;28;20457;-65
2023/03/18 10:09:28;;;;;;;5.00;4.50;;;22.40;57.40;;;;;;5044686;28;20495;-61
2023/03/18 10:12:04;;;;;;;8.40;4.20;;;22.80;56.60;;;;;;5043808;28;20508;-65
2023/03/18 10:14:40;;;;;;;5.47;3.70;;;23.20;55.50;;;;;;5036759;28;20439;-64
2023/03/18 10:17:18;;;;;;;8.00;4.77;;;23.70;54.60;;;;;;5049539;28;20495;-66
2023/03/18 10:19:48;;;;;;;11.23;4.90;;;23.80;53.80;;;;;;5046263;28;20471;-59
2023/03/18 10:22:48;;;;;;;8.97;4.37;;;23.90;53.70;;;;;;5050687;28;20474;-62
2023/03/18 10:25:25;;;;;;;9.27;4.03;;;23.90;53.20;;;;;;5045099;28;20432;-60
2023/03/18 10:28:07;;;;;;;6.90;3.83;;;23.70;53.30;;;;;;5045847;28;20456;-65
2023/03/18 10:30:54;;;;;;;9.67;4.23;;;23.70;53.60;;;;;;5053543;28;20430;-67
2023/03/18 10:33:30;;;;;;;6.23;4.43;;;23.60;54.20;;;;;;5054383;28;20479;-68
2023/03/18 10:36:05;;;;;;;5.37;3.87;;;23.50;53.80;;;;;;5043411;28;20444;-61
2023/03/18 10:38:35;;;;;;;8.23;4.03;;;23.30;54.20;;;;;;5040244;28;20535;-69
2023/03/18 10:41:14;;;;;;;6.33;4.27;;;23.20;54.00;;;;;;5057743;28;20433;-66
2023/03/18 10:43:41;;;;;;;5.10;4.33;;;23.10;54.50;;;;;;5053362;28;20447;-66
2023/03/18 10:46:14;;;;;;;11.13;5.03;;;23.00;54.80;;;;;;5047700;28;20476;-66
2023/03/18 10:48:44;;;;;;;6.60;4.80;;;22.70;54.90;;;;;;5043701;28;20476;-69
2023/03/18 10:51:17;;;;;;;6.70;3.87;;;22.60;55.40;;;;;;5058296;28;20487;-66
2023/03/18 10:53:49;;;;;;;5.93;3.80;;;22.50;55.80;;;;;;5055603;28;20447;-64
2023/03/18 10:56:19;;;;;;;5.60;4.27;;;22.60;56.30;;;;;;5051541;28;20459;-64
2023/03/18 10:58:47;;;;;;;6.10;4.40;;;22.50;56.50;;;;;;5054306;28;20456;-64
2023/03/18 11:01:17;;;;;;;11.07;6.40;;;22.10;56.90;;;;;;5052132;28;20476;-59
2023/03/18 11:03:49;;;;;;;5.47;4.07;;;21.80;56.80;;;;;;5051017;28;20432;-59
2023/03/18 11:06:19;;;;;;;5.43;4.50;;;21.60;57.40;;;;;;5050545;28;20451;-61
2023/03/18 11:08:48;;;;;;;6.30;4.57;;;21.20;58.10;;;;;;5047214;28;20436;-67
2023/03/18 11:11:22;;;;;;;6.70;4.77;;;21.00;58.50;;;;;;5041434;28;20451;-61
2023/03/18 11:13:52;;;;;;;7.93;5.10;;;20.90;59.30;;;;;;5047563;28;20499;-70
2023/03/18 11:16:28;;;;;;;4.77;4.10;;;20.90;60.20;;;;;;5047656;28;20436;-63
2023/03/18 11:18:55;;;;;;;5.43;3.77;;;20.70;61.00;;;;;;5054699;28;20476;-64
2023/03/18 11:21:23;;;;;;;6.63;4.60;;;20.40;61.60;;;;;;5053561;28;20431;-65
2023/03/18 11:24:07;;;;;;;7.50;3.70;;;20.40;62.80;;;;;;5055428;28;20960;-65
2023/03/18 11:26:52;;;;;;;6.33;3.90;;;20.30;64.60;;;;;;5047356;28;20456;-62
2023/03/18 11:29:23;;;;;;;5.93;4.33;;;20.10;65.80;;;;;;5052554;28;20424;-64
2023/03/18 11:31:56;;;;;;;5.90;3.87;;;19.90;66.30;;;;;;5055270;28;20456;-62
2023/03/18 11:34:23;;;;;;;6.83;4.30;;;19.80;67.30;;;;;;5055086;28;20424;-55
2023/03/18 11:36:57;;;;;;;5.27;4.23;;;19.40;67.30;;;;;;5049749;28;20498;-67
2023/03/18 11:39:26;;;;;;;5.90;3.57;;;19.20;68.90;;;;;;5047231;28;20488;-61
2023/03/18 11:41:54;;;;;;;17.10;10.77;;;19.00;70.70;;;;;;5054164;28;20467;-61
2023/03/18 11:44:28;;;;;;;9.63;5.87;;;19.00;71.80;;;;;;5053689;28;20787;-59
2023/03/18 11:47:04;;;;;;;7.30;4.90;;;19.00;72.60;;;;;;5050934;28;20452;-63
2023/03/18 11:49:32;;;;;;;8.43;3.70;;;18.90;73.60;;;;;;5048062;28;20459;-64
2023/03/18 11:52:08;;;;;;;9.37;3.40;;;18.70;74.70;;;;;;5054647;28;20455;-58
2023/03/18 11:55:20;;;;;;;5.03;3.70;;;18.70;74.90;;;;;;5050978;28;20424;-60
2023/03/18 11:58:16;;;;;;;5.67;4.43;;;18.80;74.90;;;;;;5016203;28;20544;-64
2023/03/18 12:00:49;;;;;;;15.63;5.20;;;18.80;75.90;;;;;;5045181;28;20472;-70
2023/03/18 12:03:52;;;;;;;5.10;3.93;;;18.90;76.30;;;;;;5055027;28;20823;-69
2023/03/18 12:06:21;;;;;;;5.50;3.47;;;18.80;76.70;;;;;;5050761;28;20451;-64
2023/03/18 12:08:58;;;;;;;7.70;4.03;;;18.80;78.20;;;;;;5054466;28;20456;-57
2023/03/18 12:11:41;;;;;;;8.00;5.07;;;18.80;79.80;;;;;;5036273;28;20457;-61
2023/03/18 12:14:14;;;;;;;7.43;3.87;;;18.80;79.50;;;;;;5045113;28;20441;-55
2023/03/18 12:16:55;;;;;;;9.00;4.10;;;18.80;80.20;;;;;;5052388;28;20508;-59
2023/03/18 12:19:53;;;;;;;6.60;3.23;;;18.80;80.70;;;;;;5054341;28;20443;-57
2023/03/18 12:22:37;;;;;;;11.27;4.50;;;18.80;80.80;;;;;;5044167;28;20467;-71
2023/03/18 12:25:29;;;;;;;8.80;5.60;;;18.80;81.70;;;;;;5040004;28;20543;-70
2023/03/18 12:28:03;;;;;;;7.70;4.20;;;18.80;82.30;;;;;;5043106;28;20527;-52
2023/03/18 12:30:53;;;;;;;5.73;4.20;;;18.80;83.40;;;;;;5052034;28;20478;-71
2023/03/18 12:33:43;;;;;;;8.50;3.77;;;18.80;83.20;;;;;;5050733;28;20464;-70
2023/03/18 12:36:20;;;;;;;9.83;4.40;;;18.90;83.90;;;;;;5048033;28;20482;-59
2023/03/18 12:39:27;;;;;;;9.03;4.53;;;18.80;84.30;;;;;;5052434;28;20503;-58
2023/03/18 12:42:02;;;;;;;3.10;2.63;;;18.90;85.50;;;;;;5048796;28;20567;-59
2023/03/18 12:44:43;;;;;;;4.43;3.10;;;19.00;86.60;;;;;;5035722;28;20479;-56
2023/03/18 12:47:17;;;;;;;7.23;3.70;;;19.00;88.30;;;;;;5035167;28;20488;-60
2023/03/18 12:49:50;;;;;;;5.03;4.30;;;19.00;88.80;;;;;;5028384;28;20488;-70
2023/03/18 12:52:29;;;;;;;8.83;5.73;;;19.00;90.10;;;;;;5043090;28;20500;-59
2023/03/18 12:55:01;;;;;;;8.80;4.40;;;19.20;88.70;;;;;;5043624;28;20448;-63
2023/03/18 12:57:36;;;;;;;3.80;3.37;;;19.30;88.60;;;;;;5050424;28;20468;-70
2023/03/18 13:00:09;;;;;;;4.50;3.30;;;19.30;88.70;;;;;;5052829;28;20444;-67
2023/03/18 13:02:48;;;;;;;7.53;4.23;;;19.40;89.50;;;;;;5054425;28;20464;-63
2023/03/18 13:05:26;;;;;;;5.33;4.37;;;19.40;88.20;;;;;;5043715;28;20490;-56
2023/03/18 13:08:06;;;;;;;4.67;3.73;;;19.50;88.20;;;;;;5052139;28;20471;-64